sensor_id;sensor_type;location;lat;lon;timestamp;temperature;humidity
20977;DHT22;10647;51.016;3.720;2022-07-10T00:00:12;17.80;99.90
20977;DHT22;10647;51.016;3.720;2022-07-10T00:02:41;17.80;99.90
20977;DHT22;10647;51.016;3.720;2022-07-10T00:05:14;17.70;99.90
20977;DHT22;10647;51.016;3.720;2022-07-10T00:07:42;17.60;99.90
20977;DHT22;10647;51.016;3.720;2022-07-10T00:10:09;17.50;99.90
20977;DHT22;10647;51.016;3.720;2022-07-10T00:12:38;17.50;99.90
20977;DHT22;10647;51.016;3.720;2022-07-10T00:15:06;17.40;99.90
20977;DHT22;10647;51.016;3.720;2022-07-10T00:17:33;17.30;99.90
20977;DHT22;10647;51.016;3.720;2022-07-10T00:20:03;17.30;99.90
20977;DHT22;10647;51.016;3.720;2022-07-10T00:22:31;17.30;99.90
20977;DHT22;10647;51.016;3.720;2022-07-10T00:24:58;17.30;99.90
20977;DHT22;10647;51.016;3.720;2022-07-10T00:27:26;17.20;99.90
20977;DHT22;10647;51.016;3.720;2022-07-10T00:29:53;17.20;99.90
20977;DHT22;10647;51.016;3.720;2022-07-10T00:32:22;17.10;99.90
20977;DHT22;10647;51.016;3.720;2022-07-10T00:34:51;17.10;99.90
20977;DHT22;10647;51.016;3.720;2022-07-10T00:37:19;17.00;99.90
20977;DHT22;10647;51.016;3.720;2022-07-10T00:39:48;17.00;99.90
20977;DHT22;10647;51.016;3.720;2022-07-10T00:42:16;17.00;99.90
20977;DHT22;10647;51.016;3.720;2022-07-10T00:44:44;16.90;99.90
20977;DHT22;10647;51.016;3.720;2022-07-10T00:47:11;16.90;99.90
20977;DHT22;10647;51.016;3.720;2022-07-10T00:49:41;16.90;99.90
20977;DHT22;10647;51.016;3.720;2022-07-10T00:52:10;16.90;99.90
20977;DHT22;10647;51.016;3.720;2022-07-10T00:54:46;16.90;99.90
20977;DHT22;10647;51.016;3.720;2022-07-10T00:57:10;16.80;99.90
20977;DHT22;10647;51.016;3.720;2022-07-10T00:59:39;16.80;99.90
20977;DHT22;10647;51.016;3.720;2022-07-10T01:02:07;16.80;99.90
20977;DHT22;10647;51.016;3.720;2022-07-10T01:04:35;16.80;99.90
20977;DHT22;10647;51.016;3.720;2022-07-10T01:07:03;16.70;99.90
20977;DHT22;10647;51.016;3.720;2022-07-10T01:09:33;16.70;99.90
20977;DHT22;10647;51.016;3.720;2022-07-10T01:12:02;16.70;99.90
20977;DHT22;10647;51.016;3.720;2022-07-10T01:14:30;16.60;99.90
20977;DHT22;10647;51.016;3.720;2022-07-10T01:16:58;16.60;99.90
20977;DHT22;10647;51.016;3.720;2022-07-10T01:19:26;16.60;99.90
20977;DHT22;10647;51.016;3.720;2022-07-10T01:21:54;16.60;99.90
20977;DHT22;10647;51.016;3.720;2022-07-10T01:24:21;16.60;99.90
20977;DHT22;10647;51.016;3.720;2022-07-10T01:26:49;16.60;99.90
20977;DHT22;10647;51.016;3.720;2022-07-10T01:29:16;16.50;99.90
20977;DHT22;10647;51.016;3.720;2022-07-10T01:31:44;16.50;99.90
20977;DHT22;10647;51.016;3.720;2022-07-10T01:34:12;16.40;99.90
20977;DHT22;10647;51.016;3.720;2022-07-10T01:36:40;16.40;99.90
20977;DHT22;10647;51.016;3.720;2022-07-10T01:39:08;16.40;99.90
20977;DHT22;10647;51.016;3.720;2022-07-10T01:41:36;16.40;99.90
20977;DHT22;10647;51.016;3.720;2022-07-10T01:44:04;16.40;99.90
20977;DHT22;10647;51.016;3.720;2022-07-10T01:46:31;16.40;99.90
20977;DHT22;10647;51.016;3.720;2022-07-10T01:48:59;16.30;99.90
20977;DHT22;10647;51.016;3.720;2022-07-10T01:51:26;16.30;99.90
20977;DHT22;10647;51.016;3.720;2022-07-10T01:53:54;16.30;99.90
20977;DHT22;10647;51.016;3.720;2022-07-10T01:56:22;16.30;99.90
20977;DHT22;10647;51.016;3.720;2022-07-10T01:58:49;16.20;99.90
20977;DHT22;10647;51.016;3.720;2022-07-10T02:01:16;16.20;99.90
20977;DHT22;10647;51.016;3.720;2022-07-10T02:03:45;16.20;99.90
20977;DHT22;10647;51.016;3.720;2022-07-10T02:06:30;16.10;99.90
20977;DHT22;10647;51.016;3.720;2022-07-10T02:08:58;16.10;99.90
20977;DHT22;10647;51.016;3.720;2022-07-10T02:11:26;16.10;99.90
20977;DHT22;10647;51.016;3.720;2022-07-10T02:13:59;16.10;99.90
20977;DHT22;10647;51.016;3.720;2022-07-10T02:16:27;16.10;99.90
20977;DHT22;10647;51.016;3.720;2022-07-10T02:18:54;16.10;99.90
20977;DHT22;10647;51.016;3.720;2022-07-10T02:21:22;16.10;99.90
20977;DHT22;10647;51.016;3.720;2022-07-10T02:23:49;16.10;99.90
20977;DHT22;10647;51.016;3.720;2022-07-10T02:26:17;16.10;99.90
20977;DHT22;10647;51.016;3.720;2022-07-10T02:28:44;16.10;99.90
20977;DHT22;10647;51.016;3.720;2022-07-10T02:31:12;16.10;99.90
20977;DHT22;10647;51.016;3.720;2022-07-10T02:33:39;16.00;99.90
20977;DHT22;10647;51.016;3.720;2022-07-10T02:36:07;16.00;99.90
20977;DHT22;10647;51.016;3.720;2022-07-10T02:38:34;16.00;99.90
20977;DHT22;10647;51.016;3.720;2022-07-10T02:41:02;16.00;99.90
20977;DHT22;10647;51.016;3.720;2022-07-10T02:43:29;15.90;99.90
20977;DHT22;10647;51.016;3.720;2022-07-10T02:45:57;15.90;99.90
20977;DHT22;10647;51.016;3.720;2022-07-10T02:48:24;15.90;99.90
20977;DHT22;10647;51.016;3.720;2022-07-10T02:50:52;15.80;99.90
20977;DHT22;10647;51.016;3.720;2022-07-10T02:53:19;15.80;99.90
20977;DHT22;10647;51.016;3.720;2022-07-10T02:55:47;15.80;99.90
20977;DHT22;10647;51.016;3.720;2022-07-10T02:58:15;15.80;99.90
20977;DHT22;10647;51.016;3.720;2022-07-10T03:00:44;15.80;99.90
20977;DHT22;10647;51.016;3.720;2022-07-10T03:03:13;15.70;99.90
20977;DHT22;10647;51.016;3.720;2022-07-10T03:05:40;15.70;99.90
20977;DHT22;10647;51.016;3.720;2022-07-10T03:08:08;15.70;99.90
20977;DHT22;10647;51.016;3.720;2022-07-10T03:10:36;15.60;99.90
20977;DHT22;10647;51.016;3.720;2022-07-10T03:13:05;15.70;99.90
20977;DHT22;10647;51.016;3.720;2022-07-10T03:15:32;15.60;99.90
20977;DHT22;10647;51.016;3.720;2022-07-10T03:18:00;15.60;99.90
20977;DHT22;10647;51.016;3.720;2022-07-10T03:20:28;15.60;99.90
20977;DHT22;10647;51.016;3.720;2022-07-10T03:22:55;15.60;99.90
20977;DHT22;10647;51.016;3.720;2022-07-10T03:25:23;15.60;99.90
20977;DHT22;10647;51.016;3.720;2022-07-10T03:27:52;15.60;99.90
20977;DHT22;10647;51.016;3.720;2022-07-10T03:30:20;15.60;99.90
20977;DHT22;10647;51.016;3.720;2022-07-10T03:32:47;15.50;99.90
20977;DHT22;10647;51.016;3.720;2022-07-10T03:35:15;15.50;99.90
20977;DHT22;10647;51.016;3.720;2022-07-10T03:37:42;15.50;99.90
20977;DHT22;10647;51.016;3.720;2022-07-10T03:40:11;15.50;99.90
20977;DHT22;10647;51.016;3.720;2022-07-10T03:42:39;15.50;99.90
20977;DHT22;10647;51.016;3.720;2022-07-10T03:45:07;15.50;99.90
20977;DHT22;10647;51.016;3.720;2022-07-10T03:47:34;15.50;99.90
20977;DHT22;10647;51.016;3.720;2022-07-10T03:50:02;15.40;99.90
20977;DHT22;10647;51.016;3.720;2022-07-10T03:52:30;15.40;99.90
20977;DHT22;10647;51.016;3.720;2022-07-10T03:54:58;15.40;99.90
20977;DHT22;10647;51.016;3.720;2022-07-10T03:57:25;15.40;99.90
20977;DHT22;10647;51.016;3.720;2022-07-10T04:00:11;15.40;99.90
20977;DHT22;10647;51.016;3.720;2022-07-10T04:02:39;15.40;99.90
20977;DHT22;10647;51.016;3.720;2022-07-10T04:05:09;15.40;99.90
20977;DHT22;10647;51.016;3.720;2022-07-10T04:07:37;15.40;99.90
20977;DHT22;10647;51.016;3.720;2022-07-10T04:10:05;15.40;99.90
20977;DHT22;10647;51.016;3.720;2022-07-10T04:12:33;15.50;99.90
20977;DHT22;10647;51.016;3.720;2022-07-10T04:15:00;15.50;99.90
20977;DHT22;10647;51.016;3.720;2022-07-10T04:17:28;15.40;99.90
20977;DHT22;10647;51.016;3.720;2022-07-10T04:19:55;15.50;99.90
20977;DHT22;10647;51.016;3.720;2022-07-10T04:22:29;15.60;99.90
20977;DHT22;10647;51.016;3.720;2022-07-10T04:24:56;15.60;99.90
20977;DHT22;10647;51.016;3.720;2022-07-10T04:27:24;15.70;99.90
20977;DHT22;10647;51.016;3.720;2022-07-10T04:29:52;15.70;99.90
20977;DHT22;10647;51.016;3.720;2022-07-10T04:32:19;15.80;99.90
20977;DHT22;10647;51.016;3.720;2022-07-10T04:34:47;15.80;99.90
20977;DHT22;10647;51.016;3.720;2022-07-10T04:37:15;15.90;99.90
20977;DHT22;10647;51.016;3.720;2022-07-10T04:39:42;15.90;99.90
20977;DHT22;10647;51.016;3.720;2022-07-10T04:42:10;16.00;99.90
20977;DHT22;10647;51.016;3.720;2022-07-10T04:44:38;16.00;99.90
20977;DHT22;10647;51.016;3.720;2022-07-10T04:47:06;16.10;99.90
20977;DHT22;10647;51.016;3.720;2022-07-10T04:49:34;16.10;99.90
20977;DHT22;10647;51.016;3.720;2022-07-10T04:52:01;16.20;99.90
20977;DHT22;10647;51.016;3.720;2022-07-10T04:54:29;16.20;99.90
20977;DHT22;10647;51.016;3.720;2022-07-10T04:56:56;16.30;99.90
20977;DHT22;10647;51.016;3.720;2022-07-10T04:59:24;16.40;99.90
20977;DHT22;10647;51.016;3.720;2022-07-10T05:01:52;16.40;99.90
20977;DHT22;10647;51.016;3.720;2022-07-10T05:04:19;16.50;99.90
20977;DHT22;10647;51.016;3.720;2022-07-10T05:06:47;16.60;99.90
20977;DHT22;10647;51.016;3.720;2022-07-10T05:09:14;16.60;99.90
20977;DHT22;10647;51.016;3.720;2022-07-10T05:11:42;16.70;99.90
20977;DHT22;10647;51.016;3.720;2022-07-10T05:14:09;16.80;99.90
20977;DHT22;10647;51.016;3.720;2022-07-10T05:16:37;16.80;99.90
20977;DHT22;10647;51.016;3.720;2022-07-10T05:19:04;16.90;99.90
20977;DHT22;10647;51.016;3.720;2022-07-10T05:21:32;16.90;99.90
20977;DHT22;10647;51.016;3.720;2022-07-10T05:23:59;17.00;99.90
20977;DHT22;10647;51.016;3.720;2022-07-10T05:26:27;17.00;99.90
20977;DHT22;10647;51.016;3.720;2022-07-10T05:28:55;17.10;99.90
20977;DHT22;10647;51.016;3.720;2022-07-10T05:31:22;17.20;99.90
20977;DHT22;10647;51.016;3.720;2022-07-10T05:33:51;17.30;99.90
20977;DHT22;10647;51.016;3.720;2022-07-10T05:36:18;17.30;99.90
20977;DHT22;10647;51.016;3.720;2022-07-10T05:38:46;17.40;99.90
20977;DHT22;10647;51.016;3.720;2022-07-10T05:41:14;17.50;99.90
20977;DHT22;10647;51.016;3.720;2022-07-10T05:43:41;17.60;99.90
20977;DHT22;10647;51.016;3.720;2022-07-10T05:46:09;17.60;99.90
20977;DHT22;10647;51.016;3.720;2022-07-10T05:48:36;17.70;99.90
20977;DHT22;10647;51.016;3.720;2022-07-10T05:51:04;17.80;99.90
20977;DHT22;10647;51.016;3.720;2022-07-10T05:53:32;17.90;99.90
20977;DHT22;10647;51.016;3.720;2022-07-10T05:56:00;18.00;99.90
20977;DHT22;10647;51.016;3.720;2022-07-10T05:58:28;18.10;99.90
20977;DHT22;10647;51.016;3.720;2022-07-10T06:00:56;18.10;99.90
20977;DHT22;10647;51.016;3.720;2022-07-10T06:03:24;18.20;99.90
20977;DHT22;10647;51.016;3.720;2022-07-10T06:05:51;18.30;99.90
20977;DHT22;10647;51.016;3.720;2022-07-10T06:08:19;18.40;99.90
20977;DHT22;10647;51.016;3.720;2022-07-10T06:10:46;18.50;99.90
20977;DHT22;10647;51.016;3.720;2022-07-10T06:13:14;18.60;99.90
20977;DHT22;10647;51.016;3.720;2022-07-10T06:15:42;18.70;99.90
20977;DHT22;10647;51.016;3.720;2022-07-10T06:18:09;18.80;99.90
20977;DHT22;10647;51.016;3.720;2022-07-10T06:20:37;18.90;99.90
20977;DHT22;10647;51.016;3.720;2022-07-10T06:23:05;19.00;99.90
20977;DHT22;10647;51.016;3.720;2022-07-10T06:25:32;19.00;99.90
20977;DHT22;10647;51.016;3.720;2022-07-10T06:28:00;19.10;99.90
20977;DHT22;10647;51.016;3.720;2022-07-10T06:30:27;19.20;99.90
20977;DHT22;10647;51.016;3.720;2022-07-10T06:32:55;19.20;99.90
20977;DHT22;10647;51.016;3.720;2022-07-10T06:35:22;19.30;99.90
20977;DHT22;10647;51.016;3.720;2022-07-10T06:37:50;19.40;99.90
20977;DHT22;10647;51.016;3.720;2022-07-10T06:40:20;19.40;99.90
20977;DHT22;10647;51.016;3.720;2022-07-10T06:42:48;19.50;99.90
20977;DHT22;10647;51.016;3.720;2022-07-10T06:45:15;19.60;99.90
20977;DHT22;10647;51.016;3.720;2022-07-10T06:47:43;19.70;99.90
20977;DHT22;10647;51.016;3.720;2022-07-10T06:50:30;19.80;99.90
20977;DHT22;10647;51.016;3.720;2022-07-10T06:52:58;19.80;99.90
20977;DHT22;10647;51.016;3.720;2022-07-10T06:55:26;19.90;99.90
20977;DHT22;10647;51.016;3.720;2022-07-10T06:57:56;19.90;99.90
20977;DHT22;10647;51.016;3.720;2022-07-10T07:00:24;20.00;99.90
20977;DHT22;10647;51.016;3.720;2022-07-10T07:02:52;20.20;99.90
20977;DHT22;10647;51.016;3.720;2022-07-10T07:05:19;20.20;99.90
20977;DHT22;10647;51.016;3.720;2022-07-10T07:07:47;20.30;99.90
20977;DHT22;10647;51.016;3.720;2022-07-10T07:10:15;20.30;99.90
20977;DHT22;10647;51.016;3.720;2022-07-10T07:12:42;20.40;99.90
20977;DHT22;10647;51.016;3.720;2022-07-10T07:15:10;20.40;99.90
20977;DHT22;10647;51.016;3.720;2022-07-10T07:17:42;20.50;99.90
20977;DHT22;10647;51.016;3.720;2022-07-10T07:20:29;20.60;99.90
20977;DHT22;10647;51.016;3.720;2022-07-10T07:23:14;20.70;99.90
20977;DHT22;10647;51.016;3.720;2022-07-10T07:25:41;20.80;99.90
20977;DHT22;10647;51.016;3.720;2022-07-10T07:28:11;20.80;99.90
20977;DHT22;10647;51.016;3.720;2022-07-10T07:30:38;20.80;99.90
20977;DHT22;10647;51.016;3.720;2022-07-10T07:33:06;20.80;99.90
20977;DHT22;10647;51.016;3.720;2022-07-10T07:35:33;20.90;99.90
20977;DHT22;10647;51.016;3.720;2022-07-10T07:38:02;20.90;99.90
20977;DHT22;10647;51.016;3.720;2022-07-10T07:40:29;21.00;99.90
20977;DHT22;10647;51.016;3.720;2022-07-10T07:42:57;21.00;99.90
20977;DHT22;10647;51.016;3.720;2022-07-10T07:45:25;21.10;99.90
20977;DHT22;10647;51.016;3.720;2022-07-10T07:47:58;21.20;99.90
20977;DHT22;10647;51.016;3.720;2022-07-10T07:50:28;21.20;99.90
20977;DHT22;10647;51.016;3.720;2022-07-10T07:52:59;21.30;99.90
20977;DHT22;10647;51.016;3.720;2022-07-10T07:55:28;21.30;99.90
20977;DHT22;10647;51.016;3.720;2022-07-10T07:57:56;21.40;99.90
20977;DHT22;10647;51.016;3.720;2022-07-10T08:00:26;21.50;99.90
20977;DHT22;10647;51.016;3.720;2022-07-10T08:02:54;21.60;99.90
20977;DHT22;10647;51.016;3.720;2022-07-10T08:05:22;21.60;99.90
20977;DHT22;10647;51.016;3.720;2022-07-10T08:07:52;21.70;99.90
20977;DHT22;10647;51.016;3.720;2022-07-10T08:10:23;21.80;99.90
20977;DHT22;10647;51.016;3.720;2022-07-10T08:12:50;21.80;99.90
20977;DHT22;10647;51.016;3.720;2022-07-10T08:15:19;21.90;99.90
20977;DHT22;10647;51.016;3.720;2022-07-10T08:17:50;22.00;99.90
20977;DHT22;10647;51.016;3.720;2022-07-10T08:20:18;22.10;99.90
20977;DHT22;10647;51.016;3.720;2022-07-10T08:22:46;22.20;99.90
20977;DHT22;10647;51.016;3.720;2022-07-10T08:25:15;22.30;99.90
20977;DHT22;10647;51.016;3.720;2022-07-10T08:27:42;22.40;99.90
20977;DHT22;10647;51.016;3.720;2022-07-10T08:30:10;22.60;99.90
20977;DHT22;10647;51.016;3.720;2022-07-10T08:32:39;22.80;99.90
20977;DHT22;10647;51.016;3.720;2022-07-10T08:35:08;23.00;99.90
20977;DHT22;10647;51.016;3.720;2022-07-10T08:37:43;23.10;99.90
20977;DHT22;10647;51.016;3.720;2022-07-10T08:42:51;23.80;99.90
20977;DHT22;10647;51.016;3.720;2022-07-10T08:45:19;24.20;99.90
20977;DHT22;10647;51.016;3.720;2022-07-10T08:47:46;24.50;99.90
20977;DHT22;10647;51.016;3.720;2022-07-10T08:50:17;24.80;99.90
20977;DHT22;10647;51.016;3.720;2022-07-10T08:52:52;25.10;99.40
20977;DHT22;10647;51.016;3.720;2022-07-10T08:55:19;25.10;98.60
20977;DHT22;10647;51.016;3.720;2022-07-10T08:57:49;25.30;98.10
20977;DHT22;10647;51.016;3.720;2022-07-10T09:00:24;25.50;97.50
20977;DHT22;10647;51.016;3.720;2022-07-10T09:02:53;25.60;97.10
20977;DHT22;10647;51.016;3.720;2022-07-10T09:05:27;25.80;96.80
20977;DHT22;10647;51.016;3.720;2022-07-10T09:07:51;26.00;96.50
20977;DHT22;10647;51.016;3.720;2022-07-10T09:10:21;26.10;95.80
20977;DHT22;10647;51.016;3.720;2022-07-10T09:13:00;26.20;95.30
20977;DHT22;10647;51.016;3.720;2022-07-10T09:15:31;26.40;95.00
20977;DHT22;10647;51.016;3.720;2022-07-10T09:18:03;26.60;94.40
20977;DHT22;10647;51.016;3.720;2022-07-10T09:20:38;26.50;93.70
20977;DHT22;10647;51.016;3.720;2022-07-10T09:23:15;26.40;93.40
20977;DHT22;10647;51.016;3.720;2022-07-10T09:25:44;26.30;93.50
20977;DHT22;10647;51.016;3.720;2022-07-10T09:28:13;26.40;93.40
20977;DHT22;10647;51.016;3.720;2022-07-10T09:30:42;26.70;93.00
20977;DHT22;10647;51.016;3.720;2022-07-10T09:33:26;26.90;92.40
20977;DHT22;10647;51.016;3.720;2022-07-10T09:36:09;27.20;92.20
20977;DHT22;10647;51.016;3.720;2022-07-10T09:41:26;28.00;90.30
20977;DHT22;10647;51.016;3.720;2022-07-10T09:43:59;28.20;89.50
20977;DHT22;10647;51.016;3.720;2022-07-10T09:46:37;28.40;88.40
20977;DHT22;10647;51.016;3.720;2022-07-10T09:49:13;28.70;87.40
20977;DHT22;10647;51.016;3.720;2022-07-10T09:51:42;28.80;86.40
20977;DHT22;10647;51.016;3.720;2022-07-10T09:54:10;28.90;85.70
20977;DHT22;10647;51.016;3.720;2022-07-10T09:56:44;29.10;84.80
20977;DHT22;10647;51.016;3.720;2022-07-10T09:59:14;29.40;84.10
20977;DHT22;10647;51.016;3.720;2022-07-10T10:01:46;29.60;82.90
20977;DHT22;10647;51.016;3.720;2022-07-10T10:04:16;29.60;82.40
20977;DHT22;10647;51.016;3.720;2022-07-10T10:06:52;29.40;82.90
20977;DHT22;10647;51.016;3.720;2022-07-10T10:09:40;29.60;82.50
20977;DHT22;10647;51.016;3.720;2022-07-10T10:12:16;29.80;81.70
20977;DHT22;10647;51.016;3.720;2022-07-10T10:14:41;29.80;79.90
20977;DHT22;10647;51.016;3.720;2022-07-10T10:17:10;30.10;79.80
20977;DHT22;10647;51.016;3.720;2022-07-10T10:19:40;30.10;78.70
20977;DHT22;10647;51.016;3.720;2022-07-10T10:22:26;30.20;78.40
20977;DHT22;10647;51.016;3.720;2022-07-10T10:24:55;30.10;78.10
20977;DHT22;10647;51.016;3.720;2022-07-10T10:27:23;30.10;78.20
20977;DHT22;10647;51.016;3.720;2022-07-10T10:29:52;29.60;77.50
20977;DHT22;10647;51.016;3.720;2022-07-10T10:32:20;29.50;78.40
20977;DHT22;10647;51.016;3.720;2022-07-10T10:34:49;29.40;78.20
20977;DHT22;10647;51.016;3.720;2022-07-10T10:37:38;29.40;77.70
20977;DHT22;10647;51.016;3.720;2022-07-10T10:40:09;29.60;77.50
20977;DHT22;10647;51.016;3.720;2022-07-10T10:42:41;29.70;77.10
20977;DHT22;10647;51.016;3.720;2022-07-10T10:48:11;29.60;77.90
20977;DHT22;10647;51.016;3.720;2022-07-10T10:53:22;30.10;77.30
20977;DHT22;10647;51.016;3.720;2022-07-10T10:58:45;30.20;76.70
20977;DHT22;10647;51.016;3.720;2022-07-10T11:01:24;30.40;76.00
20977;DHT22;10647;51.016;3.720;2022-07-10T11:04:12;30.80;74.70
20977;DHT22;10647;51.016;3.720;2022-07-10T11:06:50;31.30;73.60
20977;DHT22;10647;51.016;3.720;2022-07-10T11:09:32;31.20;72.50
20977;DHT22;10647;51.016;3.720;2022-07-10T11:12:09;31.10;72.20
20977;DHT22;10647;51.016;3.720;2022-07-10T11:14:44;31.60;72.70
20977;DHT22;10647;51.016;3.720;2022-07-10T11:17:15;31.90;70.90
20977;DHT22;10647;51.016;3.720;2022-07-10T11:19:43;32.00;69.80
20977;DHT22;10647;51.016;3.720;2022-07-10T11:22:22;32.20;68.90
20977;DHT22;10647;51.016;3.720;2022-07-10T11:25:07;32.50;68.40
20977;DHT22;10647;51.016;3.720;2022-07-10T11:28:05;32.50;67.90
20977;DHT22;10647;51.016;3.720;2022-07-10T11:33:16;32.60;68.00
20977;DHT22;10647;51.016;3.720;2022-07-10T11:35:47;32.60;67.50
20977;DHT22;10647;51.016;3.720;2022-07-10T11:38:23;33.00;66.90
20977;DHT22;10647;51.016;3.720;2022-07-10T11:40:52;32.80;66.50
20977;DHT22;10647;51.016;3.720;2022-07-10T11:43:25;32.40;67.40
20977;DHT22;10647;51.016;3.720;2022-07-10T11:45:52;32.10;67.90
20977;DHT22;10647;51.016;3.720;2022-07-10T11:48:22;31.50;68.30
20977;DHT22;10647;51.016;3.720;2022-07-10T11:50:52;31.20;68.70
20977;DHT22;10647;51.016;3.720;2022-07-10T11:53:27;31.30;69.30
20977;DHT22;10647;51.016;3.720;2022-07-10T11:55:56;31.60;68.80
20977;DHT22;10647;51.016;3.720;2022-07-10T11:58:24;31.70;68.50
20977;DHT22;10647;51.016;3.720;2022-07-10T12:01:02;31.70;68.20
20977;DHT22;10647;51.016;3.720;2022-07-10T12:03:32;31.70;68.30
20977;DHT22;10647;51.016;3.720;2022-07-10T12:06:06;31.90;68.70
20977;DHT22;10647;51.016;3.720;2022-07-10T12:08:47;32.10;67.90
20977;DHT22;10647;51.016;3.720;2022-07-10T12:11:18;31.90;67.70
20977;DHT22;10647;51.016;3.720;2022-07-10T12:13:47;31.80;67.70
20977;DHT22;10647;51.016;3.720;2022-07-10T12:16:16;31.80;67.70
20977;DHT22;10647;51.016;3.720;2022-07-10T12:18:45;31.60;67.60
20977;DHT22;10647;51.016;3.720;2022-07-10T12:21:13;31.40;67.80
20977;DHT22;10647;51.016;3.720;2022-07-10T12:23:43;31.60;67.90
20977;DHT22;10647;51.016;3.720;2022-07-10T12:26:12;31.80;67.20
20977;DHT22;10647;51.016;3.720;2022-07-10T12:28:54;32.20;66.90
20977;DHT22;10647;51.016;3.720;2022-07-10T12:31:27;32.10;66.80
20977;DHT22;10647;51.016;3.720;2022-07-10T12:33:59;32.00;66.90
20977;DHT22;10647;51.016;3.720;2022-07-10T12:36:25;32.10;66.80
20977;DHT22;10647;51.016;3.720;2022-07-10T12:38:55;32.20;66.70
20977;DHT22;10647;51.016;3.720;2022-07-10T12:41:24;32.30;66.50
20977;DHT22;10647;51.016;3.720;2022-07-10T12:43:53;32.00;66.80
20977;DHT22;10647;51.016;3.720;2022-07-10T12:46:23;31.40;67.70
20977;DHT22;10647;51.016;3.720;2022-07-10T12:49:04;30.70;69.00
20977;DHT22;10647;51.016;3.720;2022-07-10T12:51:46;30.10;69.90
20977;DHT22;10647;51.016;3.720;2022-07-10T12:54:35;29.70;71.30
20977;DHT22;10647;51.016;3.720;2022-07-10T12:57:06;29.50;71.90
20977;DHT22;10647;51.016;3.720;2022-07-10T12:59:35;29.30;72.00
20977;DHT22;10647;51.016;3.720;2022-07-10T13:02:17;29.30;72.00
20977;DHT22;10647;51.016;3.720;2022-07-10T13:04:58;29.60;71.90
20977;DHT22;10647;51.016;3.720;2022-07-10T13:07:33;29.60;71.70
20977;DHT22;10647;51.016;3.720;2022-07-10T13:10:02;31.40;70.50
20977;DHT22;10647;51.016;3.720;2022-07-10T13:12:31;36.60;64.00
20977;DHT22;10647;51.016;3.720;2022-07-10T13:14:58;40.30;57.90
20977;DHT22;10647;51.016;3.720;2022-07-10T13:17:26;42.30;54.40
20977;DHT22;10647;51.016;3.720;2022-07-10T13:19:54;43.80;50.30
20977;DHT22;10647;51.016;3.720;2022-07-10T13:22:21;45.80;47.20
20977;DHT22;10647;51.016;3.720;2022-07-10T13:24:49;44.30;46.50
20977;DHT22;10647;51.016;3.720;2022-07-10T13:27:16;44.90;46.30
20977;DHT22;10647;51.016;3.720;2022-07-10T13:29:44;46.10;45.00
20977;DHT22;10647;51.016;3.720;2022-07-10T13:32:12;47.30;43.40
20977;DHT22;10647;51.016;3.720;2022-07-10T13:34:39;48.00;41.60
20977;DHT22;10647;51.016;3.720;2022-07-10T13:37:07;48.60;40.20
20977;DHT22;10647;51.016;3.720;2022-07-10T13:39:34;49.40;39.10
20977;DHT22;10647;51.016;3.720;2022-07-10T13:42:02;49.20;38.20
20977;DHT22;10647;51.016;3.720;2022-07-10T13:44:30;47.20;39.40
20977;DHT22;10647;51.016;3.720;2022-07-10T13:46:57;47.80;39.60
20977;DHT22;10647;51.016;3.720;2022-07-10T13:49:25;48.80;38.40
20977;DHT22;10647;51.016;3.720;2022-07-10T13:51:54;49.60;37.40
20977;DHT22;10647;51.016;3.720;2022-07-10T13:54:27;50.00;36.70
20977;DHT22;10647;51.016;3.720;2022-07-10T13:56:55;50.50;36.30
20977;DHT22;10647;51.016;3.720;2022-07-10T13:59:28;48.50;36.50
20977;DHT22;10647;51.016;3.720;2022-07-10T14:01:55;48.90;36.30
20977;DHT22;10647;51.016;3.720;2022-07-10T14:04:23;48.60;37.00
20977;DHT22;10647;51.016;3.720;2022-07-10T14:06:50;48.70;36.60
20977;DHT22;10647;51.016;3.720;2022-07-10T14:09:19;47.80;37.50
20977;DHT22;10647;51.016;3.720;2022-07-10T14:11:47;47.30;36.90
20977;DHT22;10647;51.016;3.720;2022-07-10T14:14:14;48.30;37.40
20977;DHT22;10647;51.016;3.720;2022-07-10T14:16:42;49.00;36.50
20977;DHT22;10647;51.016;3.720;2022-07-10T14:19:13;46.00;38.30
20977;DHT22;10647;51.016;3.720;2022-07-10T14:21:41;44.70;38.80
20977;DHT22;10647;51.016;3.720;2022-07-10T14:24:08;42.50;41.40
20977;DHT22;10647;51.016;3.720;2022-07-10T14:26:36;45.30;39.50
20977;DHT22;10647;51.016;3.720;2022-07-10T14:29:04;47.20;38.10
20977;DHT22;10647;51.016;3.720;2022-07-10T14:31:32;48.10;37.00
20977;DHT22;10647;51.016;3.720;2022-07-10T14:34:00;48.80;36.10
20977;DHT22;10647;51.016;3.720;2022-07-10T14:36:27;49.50;35.20
20977;DHT22;10647;51.016;3.720;2022-07-10T14:38:56;50.00;34.80
20977;DHT22;10647;51.016;3.720;2022-07-10T14:41:24;50.20;34.70
20977;DHT22;10647;51.016;3.720;2022-07-10T14:43:52;50.60;34.30
20977;DHT22;10647;51.016;3.720;2022-07-10T14:46:19;50.60;33.90
20977;DHT22;10647;51.016;3.720;2022-07-10T14:48:48;50.40;33.70
20977;DHT22;10647;51.016;3.720;2022-07-10T14:51:18;49.80;34.00
20977;DHT22;10647;51.016;3.720;2022-07-10T14:53:46;50.10;34.20
20977;DHT22;10647;51.016;3.720;2022-07-10T14:56:14;50.20;33.60
20977;DHT22;10647;51.016;3.720;2022-07-10T14:58:44;50.90;33.40
20977;DHT22;10647;51.016;3.720;2022-07-10T15:01:12;51.00;33.20
20977;DHT22;10647;51.016;3.720;2022-07-10T15:03:41;51.30;32.80
20977;DHT22;10647;51.016;3.720;2022-07-10T15:06:10;51.70;32.70
20977;DHT22;10647;51.016;3.720;2022-07-10T15:08:38;51.80;32.10
20977;DHT22;10647;51.016;3.720;2022-07-10T15:11:11;51.70;32.00
20977;DHT22;10647;51.016;3.720;2022-07-10T15:13:39;51.50;31.90
20977;DHT22;10647;51.016;3.720;2022-07-10T15:16:06;51.70;32.00
20977;DHT22;10647;51.016;3.720;2022-07-10T15:18:34;51.10;31.80
20977;DHT22;10647;51.016;3.720;2022-07-10T15:21:02;51.40;32.00
20977;DHT22;10647;51.016;3.720;2022-07-10T15:23:29;51.10;31.90
20977;DHT22;10647;51.016;3.720;2022-07-10T15:25:57;51.10;31.80
20977;DHT22;10647;51.016;3.720;2022-07-10T15:28:25;50.90;31.90
20977;DHT22;10647;51.016;3.720;2022-07-10T15:30:54;50.90;31.90
20977;DHT22;10647;51.016;3.720;2022-07-10T15:33:21;51.00;31.90
20977;DHT22;10647;51.016;3.720;2022-07-10T15:35:49;51.00;31.80
20977;DHT22;10647;51.016;3.720;2022-07-10T15:38:16;50.90;31.50
20977;DHT22;10647;51.016;3.720;2022-07-10T15:40:44;50.40;31.50
20977;DHT22;10647;51.016;3.720;2022-07-10T15:43:13;49.80;31.80
20977;DHT22;10647;51.016;3.720;2022-07-10T15:45:41;47.60;33.70
20977;DHT22;10647;51.016;3.720;2022-07-10T15:48:08;44.70;35.50
20977;DHT22;10647;51.016;3.720;2022-07-10T15:50:37;42.20;37.00
20977;DHT22;10647;51.016;3.720;2022-07-10T15:53:05;40.40;38.80
20977;DHT22;10647;51.016;3.720;2022-07-10T15:55:34;39.00;40.40
20977;DHT22;10647;51.016;3.720;2022-07-10T15:58:02;38.00;41.50
20977;DHT22;10647;51.016;3.720;2022-07-10T16:00:29;36.50;43.10